Time;durP1;ratioP1;P1;durP2;ratioP2;P2;SDS_P1;SDS_P2;PMS_P1;PMS_P2;Temp;Humidity;BMP_temperature;BMP_pressure;BME280_temperature;BME280_humidity;BME280_pressure;Samples;Min_cycle;Max_cycle;Signal;HPM_P1;HPM_P2
2023/09/24 00:01:40;;;;;;;0.77;0.77;;;;;;;;;;5115938;28;20804;-62
2023/09/24 00:04:07;;;;;;;0.80;0.80;;;;;;;;;;5115242;28;20886;-63
2023/09/24 00:06:34;;;;;;;0.80;0.80;;;;;;;;;;5115642;28;20510;-63
2023/09/24 00:09:01;;;;;;;0.80;0.80;;;;;;;;;;5115084;28;20560;-62
2023/09/24 00:11:30;;;;;;;0.70;0.70;;;;;;;;;;5115043;28;20440;-62
2023/09/24 00:13:57;;;;;;;0.80;0.80;;;;;;;;;;5115400;28;20537;-62
2023/09/24 00:16:24;;;;;;;0.80;0.80;;;;;;;;;;5114961;28;20442;-62
2023/09/24 00:18:51;;;;;;;0.70;0.70;;;;;;;;;;5115323;28;20444;-62
2023/09/24 00:21:19;;;;;;;0.70;0.70;;;;;;;;;;5114815;28;20442;-62
2023/09/24 00:23:46;;;;;;;0.80;0.80;;;;;;;;;;5115155;28;20444;-63
2023/09/24 00:26:13;;;;;;;0.80;0.80;;;;;;;;;;5115153;28;20546;-61
2023/09/24 00:28:42;;;;;;;0.80;0.80;;;;;;;;;;5114924;28;20448;-61
2023/09/24 00:31:09;;;;;;;0.80;0.80;;;;;;;;;;5114950;28;20835;-61
2023/09/24 00:33:36;;;;;;;0.80;0.80;;;;;;;;;;5115220;28;20516;-62
2023/09/24 00:36:03;;;;;;;0.80;0.80;;;;;;;;;;5114909;28;20437;-63
2023/09/24 00:38:31;;;;;;;0.80;0.80;;;;;;;;;;5114572;28;20503;-63
2023/09/24 00:40:58;;;;;;;0.90;0.90;;;;;;;;;;5114708;28;20444;-62
2023/09/24 00:43:27;;;;;;;0.80;0.80;;;;;;;;;;5114600;28;20961;-62
2023/09/24 00:45:55;;;;;;;0.90;0.90;;;;;;;;;;5114730;28;20554;-62
2023/09/24 00:48:27;;;;;;;0.80;0.80;;;;;;;;;;5114744;28;20797;-63
2023/09/24 00:50:56;;;;;;;0.80;0.80;;;;;;;;;;5114726;28;20513;-63
2023/09/24 00:53:23;;;;;;;0.83;0.83;;;;;;;;;;5114327;28;20444;-63
2023/09/24 00:55:51;;;;;;;0.90;0.90;;;;;;;;;;5114935;28;20480;-63
2023/09/24 00:58:18;;;;;;;0.90;0.90;;;;;;;;;;5114772;28;20442;-63
2023/09/24 01:00:47;;;;;;;0.80;0.80;;;;;;;;;;5114699;28;20462;-62
2023/09/24 01:03:16;;;;;;;0.80;0.80;;;;;;;;;;5114561;28;20446;-62
2023/09/24 01:05:43;;;;;;;0.80;0.80;;;;;;;;;;5113468;28;20441;-62
2023/09/24 01:08:10;;;;;;;0.80;0.80;;;;;;;;;;5114414;28;20434;-63
2023/09/24 01:10:39;;;;;;;0.80;0.80;;;;;;;;;;5114091;28;20879;-62
2023/09/24 01:13:06;;;;;;;0.80;0.80;;;;;;;;;;5113946;28;20427;-62
2023/09/24 01:15:34;;;;;;;0.80;0.80;;;;;;;;;;5113937;28;20933;-62
2023/09/24 01:18:05;;;;;;;0.80;0.80;;;;;;;;;;5114214;28;20844;-62
2023/09/24 01:20:33;;;;;;;0.80;0.80;;;;;;;;;;5113871;28;20439;-62
2023/09/24 01:23:04;;;;;;;0.90;0.90;;;;;;;;;;5114300;28;20495;-63
2023/09/24 01:25:34;;;;;;;0.90;0.90;;;;;;;;;;5114537;28;21057;-62
2023/09/24 01:28:03;;;;;;;0.80;0.80;;;;;;;;;;5114367;28;20428;-63
2023/09/24 01:30:31;;;;;;;0.80;0.80;;;;;;;;;;5114160;28;20498;-63
2023/09/24 01:32:58;;;;;;;0.80;0.80;;;;;;;;;;5114015;28;20451;-62
2023/09/24 01:35:27;;;;;;;0.80;0.80;;;;;;;;;;5113864;28;20452;-63
2023/09/24 01:37:55;;;;;;;0.80;0.80;;;;;;;;;;5114315;28;20559;-62
2023/09/24 01:40:25;;;;;;;0.80;0.80;;;;;;;;;;5113915;28;20442;-62
2023/09/24 01:42:55;;;;;;;0.80;0.80;;;;;;;;;;5113947;28;20436;-62
2023/09/24 01:45:22;;;;;;;0.80;0.80;;;;;;;;;;5114017;28;20780;-63
2023/09/24 01:47:50;;;;;;;0.80;0.80;;;;;;;;;;5113815;28;20443;-62
2023/09/24 01:50:17;;;;;;;0.80;0.80;;;;;;;;;;5113650;28;20476;-62
2023/09/24 01:52:45;;;;;;;0.80;0.80;;;;;;;;;;5113542;28;20467;-62
2023/09/24 01:55:15;;;;;;;0.80;0.80;;;;;;;;;;5113704;28;20942;-62
2023/09/24 01:57:44;;;;;;;0.80;0.80;;;;;;;;;;5113563;28;20465;-62
2023/09/24 02:00:16;;;;;;;0.80;0.80;;;;;;;;;;5113660;28;20800;-62
2023/09/24 02:02:44;;;;;;;0.80;0.80;;;;;;;;;;5113604;28;20503;-62
2023/09/24 02:05:12;;;;;;;0.80;0.80;;;;;;;;;;5113590;28;20490;-62
2023/09/24 02:07:40;;;;;;;0.90;0.90;;;;;;;;;;5113137;28;20436;-62
2023/09/24 02:10:07;;;;;;;1.30;1.20;;;;;;;;;;5113414;28;20488;-62
2023/09/24 02:12:36;;;;;;;0.90;0.90;;;;;;;;;;5113569;28;20435;-62
2023/09/24 02:15:11;;;;;;;0.80;0.80;;;;;;;;;;5113214;28;20485;-62
2023/09/24 02:17:41;;;;;;;0.80;0.80;;;;;;;;;;5115183;28;20430;-62
2023/09/24 02:20:18;;;;;;;0.80;0.80;;;;;;;;;;5117244;28;20530;-62
2023/09/24 02:22:45;;;;;;;0.80;0.80;;;;;;;;;;5117165;28;20428;-62
2023/09/24 02:25:13;;;;;;;0.80;0.80;;;;;;;;;;5116840;28;20616;-62
2023/09/24 02:27:40;;;;;;;0.80;0.80;;;;;;;;;;5117405;28;20441;-62
2023/09/24 02:30:11;;;;;;;0.80;0.80;;;;;;;;;;5117183;28;20471;-62
2023/09/24 02:32:39;;;;;;;0.80;0.80;;;;;;;;;;5117299;28;20420;-62
2023/09/24 02:35:08;;;;;;;0.77;0.77;;;;;;;;;;5117157;28;20794;-62
2023/09/24 02:37:35;;;;;;;0.80;0.80;;;;;;;;;;5117053;28;20472;-62
2023/09/24 02:40:05;;;;;;;0.80;0.80;;;;;;;;;;5117059;28;20436;-62
2023/09/24 02:42:32;;;;;;;0.87;0.87;;;;;;;;;;5117107;28;20419;-62
2023/09/24 02:45:01;;;;;;;0.80;0.80;;;;;;;;;;5117052;28;20434;-62
2023/09/24 02:47:29;;;;;;;0.80;0.80;;;;;;;;;;5117100;28;20435;-62
2023/09/24 02:49:56;;;;;;;0.80;0.80;;;;;;;;;;5116992;28;20562;-62
2023/09/24 02:52:24;;;;;;;0.80;0.80;;;;;;;;;;5117174;28;20443;-62
2023/09/24 02:54:51;;;;;;;0.80;0.80;;;;;;;;;;5116530;28;20446;-62
2023/09/24 02:57:18;;;;;;;0.80;0.80;;;;;;;;;;5117017;28;20436;-62
2023/09/24 02:59:46;;;;;;;0.80;0.80;;;;;;;;;;5117168;28;20443;-63
2023/09/24 03:02:13;;;;;;;1.03;1.03;;;;;;;;;;5116300;28;20537;-61
2023/09/24 03:04:42;;;;;;;0.80;0.80;;;;;;;;;;5116257;28;20431;-62
2023/09/24 03:07:09;;;;;;;0.80;0.80;;;;;;;;;;5116765;28;20530;-62
2023/09/24 03:09:37;;;;;;;0.80;0.80;;;;;;;;;;5116455;28;20430;-62
2023/09/24 03:12:04;;;;;;;0.80;0.80;;;;;;;;;;5116061;28;20439;-62
2023/09/24 03:14:32;;;;;;;0.80;0.80;;;;;;;;;;5116775;28;20501;-62
2023/09/24 03:16:59;;;;;;;0.80;0.80;;;;;;;;;;5116331;28;20518;-63
2023/09/24 03:19:26;;;;;;;0.80;0.80;;;;;;;;;;5116056;28;20539;-62
2023/09/24 03:21:55;;;;;;;0.80;0.80;;;;;;;;;;5116344;28;20525;-62
2023/09/24 03:24:22;;;;;;;0.80;0.80;;;;;;;;;;5115929;28;20860;-62
2023/09/24 03:26:49;;;;;;;0.80;0.80;;;;;;;;;;5116758;28;20454;-63
2023/09/24 03:29:19;;;;;;;0.80;0.80;;;;;;;;;;5115293;28;20440;-62
2023/09/24 03:31:46;;;;;;;0.80;0.80;;;;;;;;;;5116019;28;20481;-63
2023/09/24 03:34:13;;;;;;;0.80;0.80;;;;;;;;;;5116762;28;20438;-62
2023/09/24 03:36:41;;;;;;;0.90;0.90;;;;;;;;;;5116080;28;20839;-62
2023/09/24 03:39:10;;;;;;;0.90;0.90;;;;;;;;;;5116219;28;20501;-61
2023/09/24 03:41:37;;;;;;;0.80;0.80;;;;;;;;;;5116007;28;20438;-61
2023/09/24 03:44:05;;;;;;;0.80;0.80;;;;;;;;;;5115949;28;20441;-62
2023/09/24 03:46:32;;;;;;;0.80;0.80;;;;;;;;;;5115917;28;20431;-62
2023/09/24 03:49:00;;;;;;;0.80;0.80;;;;;;;;;;5115505;28;20434;-62
2023/09/24 03:51:27;;;;;;;0.80;0.80;;;;;;;;;;5115462;28;20474;-62
2023/09/24 03:53:54;;;;;;;0.80;0.80;;;;;;;;;;5101895;28;20444;-62
2023/09/24 03:56:22;;;;;;;0.80;0.80;;;;;;;;;;5094256;28;20533;-62
2023/09/24 03:58:50;;;;;;;0.80;0.80;;;;;;;;;;5094207;28;20448;-62
2023/09/24 04:01:17;;;;;;;0.80;0.80;;;;;;;;;;5094644;28;20444;-62
2023/09/24 04:03:45;;;;;;;0.80;0.80;;;;;;;;;;5094132;28;20459;-62
2023/09/24 04:06:12;;;;;;;0.90;0.90;;;;;;;;;;5094380;28;20439;-62
2023/09/24 04:08:40;;;;;;;0.90;0.90;;;;;;;;;;5094639;28;20520;-62
2023/09/24 04:11:11;;;;;;;0.80;0.80;;;;;;;;;;5094166;28;20563;-62
2023/09/24 04:13:41;;;;;;;0.80;0.80;;;;;;;;;;5094491;28;21006;-62
2023/09/24 04:16:10;;;;;;;0.90;0.90;;;;;;;;;;5094604;28;20470;-62
2023/09/24 04:18:37;;;;;;;0.80;0.80;;;;;;;;;;5094663;28;20435;-62
2023/09/24 04:21:05;;;;;;;0.80;0.80;;;;;;;;;;5094379;28;20446;-62
2023/09/24 04:23:32;;;;;;;0.80;0.80;;;;;;;;;;5094440;28;20451;-62
2023/09/24 04:26:01;;;;;;;0.80;0.80;;;;;;;;;;5111196;28;21062;-62
2023/09/24 04:28:28;;;;;;;0.80;0.80;;;;;;;;;;5114677;28;20904;-62
2023/09/24 04:30:57;;;;;;;0.80;0.80;;;;;;;;;;5114754;28;20907;-62
2023/09/24 04:33:24;;;;;;;0.80;0.80;;;;;;;;;;5114762;28;20436;-62
2023/09/24 04:35:51;;;;;;;0.80;0.80;;;;;;;;;;5114457;28;20534;-62
2023/09/24 04:38:18;;;;;;;0.83;0.83;;;;;;;;;;5114509;28;20840;-62
2023/09/24 04:40:46;;;;;;;0.80;0.80;;;;;;;;;;5114387;28;20497;-62
2023/09/24 04:43:15;;;;;;;0.90;0.90;;;;;;;;;;5114910;28;20489;-62
2023/09/24 04:45:42;;;;;;;0.80;0.80;;;;;;;;;;5113816;28;21051;-62
2023/09/24 04:48:11;;;;;;;0.90;0.90;;;;;;;;;;5114562;28;20434;-62
2023/09/24 04:50:38;;;;;;;0.80;0.80;;;;;;;;;;5114150;28;20486;-62
2023/09/24 04:53:06;;;;;;;0.80;0.80;;;;;;;;;;5113753;28;20448;-62
2023/09/24 04:55:33;;;;;;;0.80;0.80;;;;;;;;;;5113979;28;20467;-62
2023/09/24 04:58:01;;;;;;;0.80;0.80;;;;;;;;;;5114070;28;20434;-62
2023/09/24 05:00:28;;;;;;;0.80;0.80;;;;;;;;;;5114323;28;20440;-62
2023/09/24 05:02:55;;;;;;;0.90;0.90;;;;;;;;;;5113896;28;20472;-62
2023/09/24 05:05:23;;;;;;;0.80;0.80;;;;;;;;;;5113488;28;20931;-62
2023/09/24 05:07:53;;;;;;;0.80;0.80;;;;;;;;;;5114220;28;20454;-62
2023/09/24 05:10:20;;;;;;;0.80;0.80;;;;;;;;;;5113722;28;20932;-62
2023/09/24 05:12:48;;;;;;;0.80;0.80;;;;;;;;;;5114222;28;20443;-62
2023/09/24 05:15:15;;;;;;;0.87;0.87;;;;;;;;;;5113839;28;20447;-62
2023/09/24 05:17:42;;;;;;;0.80;0.80;;;;;;;;;;5113633;28;20445;-62
2023/09/24 05:20:10;;;;;;;0.80;0.80;;;;;;;;;;5114116;28;20431;-62
2023/09/24 05:22:39;;;;;;;0.90;0.90;;;;;;;;;;5114226;28;20796;-63
2023/09/24 05:25:07;;;;;;;0.80;0.80;;;;;;;;;;5113263;28;20471;-61
2023/09/24 05:27:34;;;;;;;0.90;0.90;;;;;;;;;;5113446;28;20440;-61
2023/09/24 05:30:02;;;;;;;0.80;0.80;;;;;;;;;;5113399;28;20946;-61
2023/09/24 05:32:29;;;;;;;0.80;0.80;;;;;;;;;;5113922;28;20505;-61
2023/09/24 05:34:56;;;;;;;0.80;0.80;;;;;;;;;;5113557;28;20443;-61
2023/09/24 05:37:23;;;;;;;0.80;0.80;;;;;;;;;;5113401;28;20518;-61
2023/09/24 05:39:52;;;;;;;0.87;0.87;;;;;;;;;;5113118;28;21017;-61
2023/09/24 05:42:20;;;;;;;0.80;0.80;;;;;;;;;;5113458;28;21037;-61
2023/09/24 05:44:47;;;;;;;0.80;0.80;;;;;;;;;;5113517;28;20855;-61
2023/09/24 05:47:14;;;;;;;0.80;0.80;;;;;;;;;;5113143;28;20439;-61
2023/09/24 05:49:41;;;;;;;0.80;0.80;;;;;;;;;;5113916;28;20526;-61
2023/09/24 05:52:08;;;;;;;0.80;0.80;;;;;;;;;;5112729;28;20566;-61
2023/09/24 05:54:36;;;;;;;0.80;0.80;;;;;;;;;;5113489;28;20530;-61
2023/09/24 05:57:04;;;;;;;0.80;0.80;;;;;;;;;;5113230;28;20798;-61
2023/09/24 05:59:32;;;;;;;0.80;0.80;;;;;;;;;;5113273;28;20531;-61
2023/09/24 06:01:59;;;;;;;0.80;0.80;;;;;;;;;;5113135;28;20447;-61
2023/09/24 06:04:26;;;;;;;0.80;0.80;;;;;;;;;;5113131;28;20527;-61
2023/09/24 06:06:53;;;;;;;0.80;0.80;;;;;;;;;;5112946;28;20522;-62
2023/09/24 06:09:20;;;;;;;0.80;0.80;;;;;;;;;;5113672;28;20432;-62
2023/09/24 06:11:49;;;;;;;0.80;0.80;;;;;;;;;;5113311;28;21013;-61
2023/09/24 06:14:17;;;;;;;0.80;0.80;;;;;;;;;;5113236;28;20486;-61
2023/09/24 06:16:44;;;;;;;0.80;0.80;;;;;;;;;;5112443;28;20973;-61
2023/09/24 06:19:11;;;;;;;0.90;0.90;;;;;;;;;;5113136;28;20545;-61
2023/09/24 06:21:39;;;;;;;0.80;0.80;;;;;;;;;;5113131;28;20517;-61
2023/09/24 06:24:06;;;;;;;0.80;0.80;;;;;;;;;;5113199;28;20796;-62
2023/09/24 06:26:35;;;;;;;0.80;0.80;;;;;;;;;;5112893;28;20424;-61
2023/09/24 06:29:02;;;;;;;0.80;0.80;;;;;;;;;;5112747;28;20489;-61
2023/09/24 06:31:32;;;;;;;0.77;0.77;;;;;;;;;;5113125;28;20891;-60
2023/09/24 06:34:00;;;;;;;0.80;0.80;;;;;;;;;;5113177;28;20438;-61
2023/09/24 06:36:27;;;;;;;0.80;0.80;;;;;;;;;;5112823;28;20478;-61
2023/09/24 06:38:56;;;;;;;0.80;0.80;;;;;;;;;;5112467;28;20948;-61
2023/09/24 06:41:23;;;;;;;0.80;0.80;;;;;;;;;;5113034;28;20444;-61
2023/09/24 06:43:50;;;;;;;0.80;0.80;;;;;;;;;;5112802;28;20444;-61
2023/09/24 06:46:18;;;;;;;0.80;0.80;;;;;;;;;;5112384;28;21019;-62
2023/09/24 06:48:46;;;;;;;0.80;0.80;;;;;;;;;;5112973;28;20474;-62
2023/09/24 06:51:14;;;;;;;0.80;0.80;;;;;;;;;;5112856;28;20481;-61
2023/09/24 06:53:41;;;;;;;0.83;0.83;;;;;;;;;;5112060;28;20527;-61
2023/09/24 06:56:09;;;;;;;0.80;0.80;;;;;;;;;;5112694;28;20435;-62
2023/09/24 06:58:36;;;;;;;0.80;0.80;;;;;;;;;;5112438;28;20775;-61
2023/09/24 07:01:06;;;;;;;0.90;0.90;;;;;;;;;;5112938;28;20798;-62
2023/09/24 07:03:33;;;;;;;0.80;0.80;;;;;;;;;;5113171;28;20498;-61
2023/09/24 07:06:04;;;;;;;0.87;0.87;;;;;;;;;;5116188;28;20466;-62
2023/09/24 07:08:33;;;;;;;0.80;0.80;;;;;;;;;;5116428;28;20488;-61
2023/09/24 07:11:15;;;;;;;0.80;0.80;;;;;;;;;;5115916;28;20443;-62
2023/09/24 07:13:43;;;;;;;0.80;0.80;;;;;;;;;;5115570;28;20992;-61
2023/09/24 07:16:11;;;;;;;0.80;0.80;;;;;;;;;;5116196;28;20536;-62
2023/09/24 07:18:38;;;;;;;0.80;0.80;;;;;;;;;;5115858;28;20449;-62
2023/09/24 07:21:07;;;;;;;0.80;0.80;;;;;;;;;;5116455;28;20808;-62
2023/09/24 07:23:34;;;;;;;0.80;0.80;;;;;;;;;;5115907;28;20436;-62
2023/09/24 07:26:01;;;;;;;0.80;0.80;;;;;;;;;;5116214;28;20475;-62
2023/09/24 07:28:28;;;;;;;0.80;0.80;;;;;;;;;;5116062;28;20497;-62
2023/09/24 07:30:55;;;;;;;0.80;0.80;;;;;;;;;;5115498;28;20440;-62
2023/09/24 07:33:23;;;;;;;0.80;0.80;;;;;;;;;;5116186;28;20443;-62
2023/09/24 07:35:50;;;;;;;0.80;0.80;;;;;;;;;;5116043;28;20533;-62
2023/09/24 07:38:19;;;;;;;0.80;0.80;;;;;;;;;;5115728;28;20437;-62
2023/09/24 07:40:46;;;;;;;0.87;0.87;;;;;;;;;;5115235;28;20436;-63
2023/09/24 07:43:13;;;;;;;0.80;0.80;;;;;;;;;;5115413;28;20530;-62
2023/09/24 07:45:43;;;;;;;0.80;0.80;;;;;;;;;;5115828;28;20467;-62
2023/09/24 07:48:13;;;;;;;0.80;0.80;;;;;;;;;;5115585;28;20524;-62
2023/09/24 07:50:41;;;;;;;0.80;0.80;;;;;;;;;;5115617;28;20522;-62
2023/09/24 07:53:09;;;;;;;0.80;0.80;;;;;;;;;;5115889;28;20488;-62
2023/09/24 07:55:38;;;;;;;0.80;0.80;;;;;;;;;;5115873;28;20715;-62
2023/09/24 07:58:06;;;;;;;0.80;0.80;;;;;;;;;;5131922;27;20908;-62
2023/09/24 08:00:33;;;;;;;0.80;0.80;;;;;;;;;;5135717;27;20517;-62
2023/09/24 08:03:00;;;;;;;0.80;0.80;;;;;;;;;;5136110;27;20525;-62
2023/09/24 08:05:27;;;;;;;0.80;0.80;;;;;;;;;;5135872;27;20527;-62
2023/09/24 08:07:54;;;;;;;0.80;0.80;;;;;;;;;;5135095;27;20434;-62
2023/09/24 08:10:21;;;;;;;0.70;0.70;;;;;;;;;;5135590;27;20531;-62
2023/09/24 08:12:50;;;;;;;0.80;0.80;;;;;;;;;;5135554;27;20563;-62
2023/09/24 08:15:17;;;;;;;0.80;0.80;;;;;;;;;;5135440;27;20845;-62
2023/09/24 08:17:44;;;;;;;0.80;0.80;;;;;;;;;;5135183;27;20468;-62
2023/09/24 08:20:12;;;;;;;0.80;0.80;;;;;;;;;;5135693;27;20439;-62
2023/09/24 08:22:39;;;;;;;0.70;0.70;;;;;;;;;;5135248;27;20537;-62
2023/09/24 08:25:08;;;;;;;0.70;0.70;;;;;;;;;;5135715;27;20499;-62
2023/09/24 08:27:35;;;;;;;0.77;0.77;;;;;;;;;;5134735;27;20444;-62
2023/09/24 08:30:04;;;;;;;0.80;0.80;;;;;;;;;;5135231;27;20519;-62
2023/09/24 08:32:31;;;;;;;0.77;0.77;;;;;;;;;;5135388;27;20466;-62
2023/09/24 08:34:58;;;;;;;0.80;0.80;;;;;;;;;;5134977;27;20444;-62
2023/09/24 08:37:25;;;;;;;0.70;0.70;;;;;;;;;;5135149;27;20488;-62
2023/09/24 08:39:53;;;;;;;0.80;0.80;;;;;;;;;;5134960;27;20440;-62
2023/09/24 08:42:22;;;;;;;0.80;0.80;;;;;;;;;;5135122;27;20635;-62
2023/09/24 08:44:53;;;;;;;0.70;0.70;;;;;;;;;;5135025;27;20433;-62
2023/09/24 08:47:23;;;;;;;0.80;0.80;;;;;;;;;;5135068;27;20548;-62
2023/09/24 08:49:50;;;;;;;0.70;0.70;;;;;;;;;;5134814;27;20449;-62
2023/09/24 08:52:18;;;;;;;0.80;0.80;;;;;;;;;;5134576;27;20472;-62
2023/09/24 08:54:47;;;;;;;0.77;0.77;;;;;;;;;;5134895;27;20454;-62
2023/09/24 08:57:14;;;;;;;0.80;0.80;;;;;;;;;;5134694;27;20526;-62
2023/09/24 08:59:42;;;;;;;0.90;0.90;;;;;;;;;;5134589;27;20430;-62
2023/09/24 09:02:09;;;;;;;0.77;0.77;;;;;;;;;;5134495;27;20483;-62
2023/09/24 09:04:49;;;;;;;0.70;0.70;;;;;;;;;;5134817;27;20518;-62
2023/09/24 09:07:17;;;;;;;0.70;0.70;;;;;;;;;;5134554;27;20426;-62
2023/09/24 09:09:53;;;;;;;0.80;0.80;;;;;;;;;;5134699;27;20450;-62
2023/09/24 09:12:21;;;;;;;0.70;0.70;;;;;;;;;;5134339;27;20551;-62
2023/09/24 09:14:48;;;;;;;0.80;0.80;;;;;;;;;;5134634;27;20441;-62
2023/09/24 09:17:15;;;;;;;0.70;0.70;;;;;;;;;;5133131;27;20434;-63
2023/09/24 09:19:52;;;;;;;0.70;0.70;;;;;;;;;;5133981;27;20567;-62
2023/09/24 09:22:20;;;;;;;0.80;0.80;;;;;;;;;;5134062;27;20922;-62
2023/09/24 09:24:48;;;;;;;0.70;0.70;;;;;;;;;;5133979;27;20557;-62
2023/09/24 09:27:16;;;;;;;0.70;0.70;;;;;;;;;;5133482;27;20772;-62
2023/09/24 09:29:43;;;;;;;0.70;0.70;;;;;;;;;;5134679;27;20455;-62
2023/09/24 09:32:11;;;;;;;0.80;0.80;;;;;;;;;;5133854;27;20988;-62
2023/09/24 09:34:38;;;;;;;0.70;0.70;;;;;;;;;;5134445;27;20439;-62
2023/09/24 09:37:20;;;;;;;0.80;0.80;;;;;;;;;;5133726;27;20437;-62
2023/09/24 09:39:47;;;;;;;0.80;0.80;;;;;;;;;;5133592;27;20929;-62
2023/09/24 09:42:18;;;;;;;0.80;0.80;;;;;;;;;;5133958;27;20996;-62
2023/09/24 09:44:46;;;;;;;0.70;0.70;;;;;;;;;;5134423;27;20475;-62
2023/09/24 09:47:14;;;;;;;0.80;0.80;;;;;;;;;;5133862;27;20549;-62
2023/09/24 09:49:43;;;;;;;0.70;0.70;;;;;;;;;;5134413;27;20445;-62
2023/09/24 09:52:11;;;;;;;0.73;0.73;;;;;;;;;;5133826;28;20509;-62
2023/09/24 09:54:40;;;;;;;0.80;0.80;;;;;;;;;;5134268;28;20444;-62
2023/09/24 09:57:07;;;;;;;0.70;0.70;;;;;;;;;;5133649;28;20446;-62
2023/09/24 09:59:35;;;;;;;0.70;0.70;;;;;;;;;;5133170;28;20440;-62
2023/09/24 10:02:03;;;;;;;0.70;0.70;;;;;;;;;;5133571;28;20447;-62
2023/09/24 10:04:30;;;;;;;0.70;0.70;;;;;;;;;;5133743;28;20483;-61
2023/09/24 10:06:58;;;;;;;0.70;0.70;;;;;;;;;;5133498;28;20544;-62
2023/09/24 10:09:39;;;;;;;0.80;0.80;;;;;;;;;;5133625;28;20439;-62
2023/09/24 10:12:08;;;;;;;0.70;0.70;;;;;;;;;;5133186;28;21041;-62
2023/09/24 10:14:36;;;;;;;0.70;0.70;;;;;;;;;;5133967;28;20853;-62
2023/09/24 10:17:22;;;;;;;0.70;0.70;;;;;;;;;;5132951;28;20538;-63
2023/09/24 10:19:50;;;;;;;0.70;0.70;;;;;;;;;;5132817;28;20779;-62
2023/09/24 10:22:24;;;;;;;0.70;0.70;;;;;;;;;;5133406;28;20809;-62
2023/09/24 10:24:51;;;;;;;0.70;0.70;;;;;;;;;;5133562;28;20476;-62
2023/09/24 10:27:25;;;;;;;0.70;0.70;;;;;;;;;;5133600;28;20452;-62
2023/09/24 10:30:09;;;;;;;0.80;0.80;;;;;;;;;;5133801;28;20447;-62
2023/09/24 10:32:44;;;;;;;0.70;0.70;;;;;;;;;;5133655;28;20509;-62
2023/09/24 10:35:12;;;;;;;0.80;0.80;;;;;;;;;;5133611;28;20544;-62
2023/09/24 10:37:54;;;;;;;0.70;0.70;;;;;;;;;;5133729;27;20433;-62
2023/09/24 10:40:24;;;;;;;0.70;0.70;;;;;;;;;;5137155;27;20523;-62
2023/09/24 10:43:11;;;;;;;0.70;0.70;;;;;;;;;;5137184;27;20441;-62
2023/09/24 10:45:38;;;;;;;0.70;0.70;;;;;;;;;;5137964;27;20498;-62
2023/09/24 10:48:06;;;;;;;0.73;0.73;;;;;;;;;;5136944;27;20527;-62
2023/09/24 10:50:33;;;;;;;0.70;0.70;;;;;;;;;;5137090;27;20486;-62
2023/09/24 10:53:02;;;;;;;0.80;0.80;;;;;;;;;;5137456;27;20540;-62
2023/09/24 10:55:36;;;;;;;0.80;0.80;;;;;;;;;;5137663;27;20937;-62
2023/09/24 10:58:06;;;;;;;0.80;0.80;;;;;;;;;;5136700;27;20440;-62
2023/09/24 11:00:34;;;;;;;0.80;0.80;;;;;;;;;;5136626;27;20505;-62
2023/09/24 11:03:02;;;;;;;0.70;0.70;;;;;;;;;;5136942;27;20804;-62
2023/09/24 11:05:30;;;;;;;0.70;0.70;;;;;;;;;;5136626;27;20433;-62
2023/09/24 11:07:57;;;;;;;0.70;0.70;;;;;;;;;;5137138;27;20427;-62
2023/09/24 11:10:25;;;;;;;0.70;0.70;;;;;;;;;;5137005;27;20528;-62
2023/09/24 11:12:53;;;;;;;0.70;0.70;;;;;;;;;;5136914;27;20560;-62
2023/09/24 11:15:23;;;;;;;0.80;0.80;;;;;;;;;;5137063;27;20426;-62
2023/09/24 11:17:51;;;;;;;0.70;0.70;;;;;;;;;;5136864;27;20434;-62
2023/09/24 11:20:20;;;;;;;0.70;0.70;;;;;;;;;;5136233;27;20473;-62
2023/09/24 11:22:56;;;;;;;0.70;0.70;;;;;;;;;;5136052;27;20490;-62
2023/09/24 11:25:23;;;;;;;0.73;0.73;;;;;;;;;;5136790;27;20473;-62
2023/09/24 11:27:51;;;;;;;0.70;0.70;;;;;;;;;;5136798;27;20468;-62
2023/09/24 11:30:19;;;;;;;0.70;0.70;;;;;;;;;;5136182;27;20440;-62
2023/09/24 11:32:48;;;;;;;1.77;1.67;;;;;;;;;;5136424;27;20560;-62
2023/09/24 11:35:16;;;;;;;0.70;0.70;;;;;;;;;;5136141;27;20995;-62
2023/09/24 11:37:47;;;;;;;0.73;0.73;;;;;;;;;;5136479;27;20521;-62
2023/09/24 11:40:24;;;;;;;0.70;0.70;;;;;;;;;;5135898;27;20531;-62
2023/09/24 11:42:51;;;;;;;0.70;0.70;;;;;;;;;;5135930;27;20524;-62
2023/09/24 11:45:34;;;;;;;0.70;0.70;;;;;;;;;;5136372;27;20517;-62
2023/09/24 11:48:02;;;;;;;0.70;0.70;;;;;;;;;;5136642;27;20436;-62
2023/09/24 11:50:30;;;;;;;0.70;0.70;;;;;;;;;;5135344;27;20434;-62
2023/09/24 11:52:57;;;;;;;0.70;0.70;;;;;;;;;;5136082;27;20500;-62
2023/09/24 11:55:24;;;;;;;0.70;0.70;;;;;;;;;;5135913;27;20444;-62
2023/09/24 11:57:51;;;;;;;0.70;0.70;;;;;;;;;;5135865;27;20539;-61
2023/09/24 12:00:19;;;;;;;0.70;0.70;;;;;;;;;;5135176;27;20968;-62
2023/09/24 12:02:46;;;;;;;0.70;0.70;;;;;;;;;;5135793;27;20435;-62
2023/09/24 12:05:15;;;;;;;0.70;0.70;;;;;;;;;;5135502;27;20531;-62
2023/09/24 12:07:42;;;;;;;0.70;0.70;;;;;;;;;;5135802;27;20444;-62
2023/09/24 12:10:10;;;;;;;0.80;0.80;;;;;;;;;;5135553;27;20811;-62
2023/09/24 12:12:37;;;;;;;0.70;0.70;;;;;;;;;;5135472;27;20444;-62
2023/09/24 12:15:04;;;;;;;0.70;0.70;;;;;;;;;;5135340;27;20549;-62
2023/09/24 12:17:31;;;;;;;0.70;0.70;;;;;;;;;;5135365;27;20443;-62
2023/09/24 12:19:59;;;;;;;0.70;0.70;;;;;;;;;;5134708;27;20536;-62
2023/09/24 12:22:28;;;;;;;0.70;0.70;;;;;;;;;;5135279;27;20437;-62
2023/09/24 12:24:57;;;;;;;0.70;0.70;;;;;;;;;;5135224;27;20501;-62
2023/09/24 12:27:25;;;;;;;0.70;0.70;;;;;;;;;;5135363;27;20865;-62
2023/09/24 12:29:52;;;;;;;0.70;0.70;;;;;;;;;;5135703;27;20806;-62
2023/09/24 12:32:20;;;;;;;0.70;0.70;;;;;;;;;;5135517;27;20445;-62
2023/09/24 12:34:47;;;;;;;0.70;0.70;;;;;;;;;;5135302;27;20473;-62
2023/09/24 12:37:14;;;;;;;0.70;0.70;;;;;;;;;;5135483;27;20440;-62
2023/09/24 12:39:42;;;;;;;0.70;0.70;;;;;;;;;;5135110;27;20447;-62
2023/09/24 12:42:10;;;;;;;0.70;0.70;;;;;;;;;;5135001;27;21006;-62
2023/09/24 12:44:37;;;;;;;0.70;0.70;;;;;;;;;;5135140;27;20779;-62
2023/09/24 12:47:04;;;;;;;0.70;0.70;;;;;;;;;;5135544;27;20433;-62
2023/09/24 12:49:31;;;;;;;0.70;0.70;;;;;;;;;;5135487;27;20444;-62
2023/09/24 12:51:58;;;;;;;0.70;0.70;;;;;;;;;;5135145;27;20451;-62
2023/09/24 12:54:26;;;;;;;0.70;0.70;;;;;;;;;;5135564;27;20580;-62
2023/09/24 12:56:54;;;;;;;0.70;0.70;;;;;;;;;;5135198;27;20442;-62
2023/09/24 12:59:21;;;;;;;0.70;0.70;;;;;;;;;;5134692;27;20476;-62
2023/09/24 13:01:49;;;;;;;0.70;0.70;;;;;;;;;;5134842;27;20536;-62
2023/09/24 13:04:16;;;;;;;0.70;0.70;;;;;;;;;;5134959;27;20438;-62
2023/09/24 13:06:45;;;;;;;0.80;0.80;;;;;;;;;;5134552;27;20520;-62
2023/09/24 13:09:16;;;;;;;0.70;0.70;;;;;;;;;;5134416;27;20426;-62
2023/09/24 13:11:44;;;;;;;0.70;0.70;;;;;;;;;;5134500;27;20425;-62
2023/09/24 13:14:13;;;;;;;0.70;0.70;;;;;;;;;;5134382;27;20480;-62
2023/09/24 13:16:41;;;;;;;0.70;0.70;;;;;;;;;;5134334;27;20441;-62
2023/09/24 13:19:09;;;;;;;0.70;0.70;;;;;;;;;;5134628;27;20544;-62
2023/09/24 13:21:36;;;;;;;0.70;0.70;;;;;;;;;;5134612;27;20519;-62
2023/09/24 13:24:03;;;;;;;0.70;0.70;;;;;;;;;;5134219;27;20451;-62
2023/09/24 13:26:30;;;;;;;0.70;0.70;;;;;;;;;;5134277;27;20429;-62
2023/09/24 13:28:58;;;;;;;0.70;0.70;;;;;;;;;;5133552;27;20443;-62
2023/09/24 13:31:26;;;;;;;0.70;0.70;;;;;;;;;;5133587;27;20438;-62
2023/09/24 13:33:53;;;;;;;0.73;0.73;;;;;;;;;;5133591;27;20483;-62
2023/09/24 13:36:21;;;;;;;0.80;0.80;;;;;;;;;;5134239;27;20434;-62
2023/09/24 13:38:49;;;;;;;0.70;0.70;;;;;;;;;;5134259;27;20433;-62
2023/09/24 13:41:16;;;;;;;0.70;0.70;;;;;;;;;;5133824;27;20959;-61
2023/09/24 13:43:43;;;;;;;0.70;0.70;;;;;;;;;;5134222;27;20438;-62
2023/09/24 13:46:10;;;;;;;0.70;0.70;;;;;;;;;;5133765;27;20532;-62
2023/09/24 13:48:39;;;;;;;0.70;0.70;;;;;;;;;;5133834;27;20804;-62
2023/09/24 13:51:06;;;;;;;0.70;0.70;;;;;;;;;;5133589;27;20434;-62
2023/09/24 13:53:33;;;;;;;0.70;0.70;;;;;;;;;;5133886;28;20473;-62
2023/09/24 13:56:01;;;;;;;0.70;0.70;;;;;;;;;;5134008;28;20440;-62
2023/09/24 13:58:28;;;;;;;0.70;0.70;;;;;;;;;;5134354;28;20847;-62
2023/09/24 14:00:55;;;;;;;0.70;0.70;;;;;;;;;;5134024;28;20468;-62
2023/09/24 14:03:23;;;;;;;0.70;0.70;;;;;;;;;;5133949;28;20527;-62
2023/09/24 14:05:57;;;;;;;0.70;0.70;;;;;;;;;;5134183;28;20801;-62
2023/09/24 14:13:54;;;;;;;0.70;0.70;;;;;;;;;;5136394;27;20560;-62
2023/09/24 14:16:21;;;;;;;0.70;0.70;;;;;;;;;;5137673;27;20537;-61
2023/09/24 14:18:48;;;;;;;0.70;0.70;;;;;;;;;;5138166;27;20537;-62
2023/09/24 14:21:19;;;;;;;0.70;0.70;;;;;;;;;;5137880;27;20437;-62
2023/09/24 14:23:46;;;;;;;0.70;0.70;;;;;;;;;;5138624;27;20463;-61
2023/09/24 14:26:13;;;;;;;0.70;0.70;;;;;;;;;;5137465;27;20480;-62
2023/09/24 14:28:40;;;;;;;0.70;0.70;;;;;;;;;;5137658;27;20434;-62
2023/09/24 14:31:08;;;;;;;0.70;0.70;;;;;;;;;;5136985;27;20444;-62
2023/09/24 14:33:35;;;;;;;0.70;0.70;;;;;;;;;;5136875;27;20690;-62
2023/09/24 14:36:03;;;;;;;0.70;0.70;;;;;;;;;;5137681;27;20764;-62
2023/09/24 14:38:32;;;;;;;0.70;0.70;;;;;;;;;;5137564;27;20520;-62
2023/09/24 14:40:59;;;;;;;0.70;0.70;;;;;;;;;;5137571;27;20433;-62
2023/09/24 14:43:27;;;;;;;0.70;0.70;;;;;;;;;;5137144;27;20528;-62
2023/09/24 14:45:58;;;;;;;0.70;0.70;;;;;;;;;;5137167;27;20945;-62
2023/09/24 14:48:25;;;;;;;0.70;0.70;;;;;;;;;;5137151;27;20960;-62
2023/09/24 14:50:54;;;;;;;0.70;0.70;;;;;;;;;;5136597;27;20523;-62
2023/09/24 14:53:21;;;;;;;0.70;0.70;;;;;;;;;;5136641;27;20434;-62
2023/09/24 14:55:51;;;;;;;0.70;0.70;;;;;;;;;;5137400;27;20438;-63